Time;durP1;ratioP1;P1;durP2;ratioP2;P2;SDS_P1;SDS_P2;PMS_P1;PMS_P2;Temp;Humidity;BMP_temperature;BMP_pressure;BME280_temperature;BME280_humidity;BME280_pressure;Samples;Min_cycle;Max_cycle;Signal;HPM_P1;HPM_P2
2022/02/07 00:02:05;;;;;;;;;;;;;;;16.82;37.99;100657.09;4978063;28;1406;-54
2022/02/07 00:04:35;;;;;;;;;;;;;;;16.71;38.09;100659.81;4978674;28;839;-51
2022/02/07 00:07:00;;;;;;;;;;;;;;;16.74;38.27;100656.53;4993205;28;866;-54
2022/02/07 00:09:26;;;;;;;;;;;;;;;16.81;38.93;100650.75;4982519;28;1977;-55
2022/02/07 00:11:51;;;;;;;;;;;;;;;16.89;39.58;100657.63;4980673;28;1106;-55
2022/02/07 00:14:17;;;;;;;;;;;;;;;17.15;40.61;100652.88;4984906;28;1217;-53
2022/02/07 00:16:44;;;;;;;;;;;;;;;17.20;41.10;100652.03;4978360;28;901;-49
2022/02/07 00:19:18;;;;;;;;;;;;;;;17.40;40.87;100635.47;4962034;28;1164;-51
2022/02/07 00:21:46;;;;;;;;;;;;;;;17.50;40.79;100639.25;4980162;28;1196;-50
2022/02/07 00:24:11;;;;;;;;;;;;;;;17.57;40.24;100635.09;4977699;28;1216;-50
2022/02/07 00:26:37;;;;;;;;;;;;;;;17.67;39.95;100639.72;4963698;28;1433;-50
2022/02/07 00:29:02;;;;;;;;;;;;;;;17.73;39.80;100627.56;4989211;28;1910;-52
2022/02/07 00:31:28;;;;;;;;;;;;;;;17.82;39.57;100629.72;4987949;28;1405;-52
2022/02/07 00:33:53;;;;;;;;;;;;;;;17.80;39.70;100630.00;4977768;28;1410;-48
2022/02/07 00:36:19;;;;;;;;;;;;;;;17.81;39.70;100628.91;4978275;28;846;-49
2022/02/07 00:38:49;;;;;;;;;;;;;;;17.83;39.30;100625.88;4982328;28;792;-55
2022/02/07 00:43:41;;;;;;;;;;;;;;;17.53;39.69;100614.78;4978214;28;1472;-55
2022/02/07 00:46:10;;;;;;;;;;;;;;;17.41;40.17;100612.34;4986329;28;1175;-56
2022/02/07 00:48:36;;;;;;;;;;;;;;;17.44;40.04;100609.03;4985359;28;1981;-54
2022/02/07 00:51:01;;;;;;;;;;;;;;;17.47;39.95;100598.59;4978786;28;845;-54
2022/02/07 00:53:31;;;;;;;;;;;;;;;17.34;40.09;100589.88;4960149;28;1342;-54
2022/02/07 00:55:56;;;;;;;;;;;;;;;17.49;39.68;100588.13;4960446;28;1464;-55
2022/02/07 00:58:22;;;;;;;;;;;;;;;17.72;39.38;100592.09;4977242;28;1358;-56
2022/02/07 01:00:49;;;;;;;;;;;;;;;17.86;39.15;100575.78;4963197;28;1138;-57
2022/02/07 01:03:15;;;;;;;;;;;;;;;17.76;38.95;100568.44;4962778;28;1346;-55
2022/02/07 01:05:41;;;;;;;;;;;;;;;17.83;38.83;100559.84;4975811;28;1290;-56
2022/02/07 01:08:14;;;;;;;;;;;;;;;17.79;39.02;100549.44;4979178;28;1325;-55
2022/02/07 01:10:52;;;;;;;;;;;;;;;17.86;38.96;100540.03;4996524;28;1906;-53
2022/02/07 01:19:02;;;;;;;;;;;;;;;17.91;38.78;100532.56;4977316;28;1433;-55
2022/02/07 01:54:39;;;;;;;;;;;;;;;17.88;38.38;100469.03;4977951;28;1128;-56
2022/02/07 01:57:12;;;;;;;;;;;;;;;17.50;38.95;100475.16;4980610;28;1302;-55
2022/02/07 01:59:39;;;;;;;;;;;;;;;17.42;38.39;100468.31;4961379;28;1574;-58
2022/02/07 02:02:05;;;;;;;;;;;;;;;17.33;38.44;100463.72;4962574;28;1160;-55
2022/02/07 02:04:30;;;;;;;;;;;;;;;17.02;38.52;100462.00;4964580;28;1119;-57
2022/02/07 02:06:56;;;;;;;;;;;;;;;17.07;38.13;100461.16;4992775;28;1121;-56
2022/02/07 02:09:26;;;;;;;;;;;;;;;16.92;38.22;100454.66;4961821;28;1910;-56
2022/02/07 02:11:51;;;;;;;;;;;;;;;16.71;38.44;100459.41;4962018;28;881;-56
2022/02/07 02:14:50;;;;;;;;;;;;;;;16.85;37.90;100461.53;4963456;28;1301;-58
2022/02/07 02:45:26;;;;;;;;;;;;;;;18.52;37.58;100422.13;4968534;28;1179;-56
2022/02/07 02:47:25;;;;;;;;;;;;;;;17.75;38.64;100413.63;4924173;28;1408;-57
2022/02/07 02:50:15;;;;;;;;;;;;;;;17.33;38.87;100412.31;4975151;28;1914;-56
2022/02/07 02:52:41;;;;;;;;;;;;;;;17.22;39.03;100388.78;4997629;28;1030;-55
2022/02/07 02:55:08;;;;;;;;;;;;;;;16.95;39.13;100398.31;4981269;28;1237;-56
2022/02/07 02:57:33;;;;;;;;;;;;;;;16.89;39.30;100385.75;4989415;28;1218;-57
2022/02/07 02:59:59;;;;;;;;;;;;;;;17.07;40.16;100393.31;4974641;28;1490;-56
2022/02/07 03:02:25;;;;;;;;;;;;;;;17.43;39.54;100387.53;4979408;28;1149;-55
2022/02/07 03:04:50;;;;;;;;;;;;;;;17.77;38.63;100369.31;4975080;28;1297;-54
2022/02/07 03:07:16;;;;;;;;;;;;;;;18.06;38.08;100371.22;4966474;28;1258;-54
2022/02/07 03:09:48;;;;;;;;;;;;;;;18.21;37.71;100368.28;4946822;28;1906;-55
2022/02/07 03:12:14;;;;;;;;;;;;;;;18.34;37.39;100372.25;4982156;28;838;-56
2022/02/07 03:14:44;;;;;;;;;;;;;;;18.39;37.41;100363.91;4961789;28;1714;-56
2022/02/07 03:17:11;;;;;;;;;;;;;;;18.50;36.93;100361.03;4991992;28;1086;-55
2022/02/07 03:19:37;;;;;;;;;;;;;;;18.21;37.40;100350.94;4981929;28;1335;-54
2022/02/07 03:22:02;;;;;;;;;;;;;;;17.59;38.54;100348.88;4990475;28;1467;-56
2022/02/07 03:24:28;;;;;;;;;;;;;;;17.31;39.12;100356.84;4969521;28;1280;-57
2022/02/07 03:27:13;;;;;;;;;;;;;;;17.23;38.88;100333.53;4979169;28;1163;-55
2022/02/07 03:29:46;;;;;;;;;;;;;;;17.16;38.69;100332.25;4966576;28;1914;-56
2022/02/07 03:32:14;;;;;;;;;;;;;;;17.01;38.74;100334.03;4961712;28;1323;-56
2022/02/07 03:34:50;;;;;;;;;;;;;;;16.88;38.53;100332.72;4979081;28;834;-56
2022/02/07 03:37:18;;;;;;;;;;;;;;;16.91;38.64;100325.84;4964377;28;1330;-54
2022/02/07 03:39:44;;;;;;;;;;;;;;;16.53;38.96;100314.56;4961958;28;1398;-58
2022/02/07 03:42:11;;;;;;;;;;;;;;;16.55;38.93;100328.81;4960809;28;1651;-57
2022/02/07 03:44:41;;;;;;;;;;;;;;;16.68;39.87;100317.22;4962062;28;1349;-56
2022/02/07 03:47:07;;;;;;;;;;;;;;;17.61;39.91;100310.91;4969206;28;1553;-56
2022/02/07 03:49:32;;;;;;;;;;;;;;;18.66;37.54;100309.31;4964057;28;1938;-57
2022/02/07 03:51:58;;;;;;;;;;;;;;;18.21;37.91;100312.44;4967306;28;1107;-57
2022/02/07 03:54:23;;;;;;;;;;;;;;;17.65;39.29;100316.66;4997829;28;985;-57
2022/02/07 03:56:53;;;;;;;;;;;;;;;17.40;39.22;100300.16;4980043;28;1303;-56
2022/02/07 03:59:19;;;;;;;;;;;;;;;17.06;38.56;100287.25;4976663;28;1122;-56
2022/02/07 04:01:45;;;;;;;;;;;;;;;16.84;38.81;100281.41;4961428;28;1233;-55
2022/02/07 04:04:14;;;;;;;;;;;;;;;17.06;39.49;100270.78;4963198;28;1602;-55
2022/02/07 04:06:41;;;;;;;;;;;;;;;17.01;41.31;100275.50;4961861;28;1328;-56
2022/02/07 04:09:16;;;;;;;;;;;;;;;17.84;39.62;100267.19;4961239;28;1906;-56
2022/02/07 04:11:52;;;;;;;;;;;;;;;18.17;38.49;100267.34;4961467;28;1172;-56
2022/02/07 04:14:23;;;;;;;;;;;;;;;17.54;39.84;100266.47;4965460;28;1219;-55
2022/02/07 04:16:57;;;;;;;;;;;;;;;17.38;39.64;100266.63;4965905;28;1325;-56
2022/02/07 04:19:34;;;;;;;;;;;;;;;16.95;39.50;100272.00;4966952;28;1280;-56
2022/02/07 04:22:04;;;;;;;;;;;;;;;16.75;39.58;100275.72;4978635;28;1393;-56
2022/02/07 04:24:38;;;;;;;;;;;;;;;16.41;39.32;100258.13;4967136;28;1276;-56
2022/02/07 04:27:10;;;;;;;;;;;;;;;16.73;41.15;100253.19;4959813;28;1301;-56
2022/02/07 04:29:37;;;;;;;;;;;;;;;17.21;40.82;100249.78;4982051;28;1910;-55
2022/02/07 04:32:04;;;;;;;;;;;;;;;17.69;39.91;100240.72;4991652;28;1289;-55
2022/02/07 04:34:30;;;;;;;;;;;;;;;17.66;39.86;100242.13;4976502;28;1412;-56
2022/02/07 04:36:57;;;;;;;;;;;;;;;17.56;39.94;100242.25;4962685;28;1294;-56
2022/02/07 04:39:23;;;;;;;;;;;;;;;17.14;40.46;100244.63;4964879;28;1200;-57
2022/02/07 04:41:54;;;;;;;;;;;;;;;16.90;40.59;100239.06;4964881;28;1220;-57
2022/02/07 04:44:27;;;;;;;;;;;;;;;16.65;40.87;100234.59;4966195;28;1255;-56
2022/02/07 04:49:46;;;;;;;;;;;;;;;16.62;40.56;100236.00;4986767;28;1914;-56
2022/02/07 04:55:11;;;;;;;;;;;;;;;17.38;39.77;100233.66;4962797;28;1109;-56
2022/02/07 05:00:10;;;;;;;;;;;;;;;16.68;40.65;100232.09;4978065;28;898;-56
2022/02/07 05:03:08;;;;;;;;;;;;;;;16.55;40.57;100232.75;4963856;28;1440;-56
2022/02/07 05:13:52;;;;;;;;;;;;;;;17.08;39.69;100232.88;4987174;28;1009;-56
2022/02/07 05:16:31;;;;;;;;;;;;;;;16.97;39.78;100223.09;4981829;28;959;-56
2022/02/07 05:19:06;;;;;;;;;;;;;;;16.50;39.70;100221.84;4962383;28;1429;-56
2022/02/07 05:21:54;;;;;;;;;;;;;;;17.16;39.46;100205.88;4976428;28;1247;-53
2022/02/07 05:24:36;;;;;;;;;;;;;;;16.99;39.85;100215.38;4960037;28;1114;-54
2022/02/07 05:27:31;;;;;;;;;;;;;;;16.80;39.94;100230.91;4926614;28;1261;-54
2022/02/07 05:30:24;;;;;;;;;;;;;;;16.52;40.09;100216.84;4969387;28;1913;-54
2022/02/07 05:33:00;;;;;;;;;;;;;;;16.67;41.14;100218.66;4962127;28;1972;-54
2022/02/07 05:35:42;;;;;;;;;;;;;;;17.19;39.53;100222.56;4965755;28;1181;-54
2022/02/07 05:38:32;;;;;;;;;;;;;;;17.07;39.81;100217.50;4958887;28;1214;-54
2022/02/07 05:41:24;;;;;;;;;;;;;;;16.84;39.84;100227.28;4986491;28;1102;-55
2022/02/07 05:44:16;;;;;;;;;;;;;;;16.65;40.51;100223.59;4979862;28;1400;-53
2022/02/07 05:47:02;;;;;;;;;;;;;;;16.74;40.61;100232.88;4964109;28;1323;-54
2022/02/07 05:49:50;;;;;;;;;;;;;;;16.82;40.15;100229.50;4987204;28;1905;-54
2022/02/07 05:52:54;;;;;;;;;;;;;;;16.92;40.12;100217.66;4955315;29;1298;-54
2022/02/07 05:55:23;;;;;;;;;;;;;;;17.06;39.72;100215.84;4941821;29;1295;-54
2022/02/07 05:58:21;;;;;;;;;;;;;;;17.03;39.72;100219.19;4969558;28;1485;-54
2022/02/07 06:01:10;;;;;;;;;;;;;;;16.99;39.41;100207.13;4988149;28;1205;-55
2022/02/07 06:03:35;;;;;;;;;;;;;;;16.81;40.05;100208.66;4981865;28;1221;-55
2022/02/07 06:06:12;;;;;;;;;;;;;;;16.66;40.42;100215.13;4996141;28;1153;-55
2022/02/07 06:08:38;;;;;;;;;;;;;;;16.80;40.10;100214.44;4975485;28;1910;-54
2022/02/07 06:11:07;;;;;;;;;;;;;;;16.95;39.48;100210.75;4968956;28;1252;-55
2022/02/07 06:13:37;;;;;;;;;;;;;;;17.03;39.41;100212.88;4969741;28;1362;-54
2022/02/07 06:16:07;;;;;;;;;;;;;;;17.10;39.37;100225.16;4966258;28;1245;-55
2022/02/07 06:18:33;;;;;;;;;;;;;;;17.02;39.41;100217.53;4964396;28;1604;-55
2022/02/07 06:21:05;;;;;;;;;;;;;;;17.11;39.23;100215.00;4969007;28;1177;-55
2022/02/07 06:23:33;;;;;;;;;;;;;;;16.70;39.83;100216.16;4967517;28;1234;-55
2022/02/07 06:26:06;;;;;;;;;;;;;;;16.74;39.65;100214.47;4969737;28;1168;-55
2022/02/07 06:28:32;;;;;;;;;;;;;;;16.52;40.09;100220.44;4971171;28;1922;-55
2022/02/07 06:31:03;;;;;;;;;;;;;;;17.38;38.81;100219.09;4964460;28;1137;-55
2022/02/07 06:33:29;;;;;;;;;;;;;;;17.97;37.53;100208.75;4964648;28;1252;-55
2022/02/07 06:35:58;;;;;;;;;;;;;;;17.82;37.54;100217.19;4964404;28;1306;-55
2022/02/07 06:38:24;;;;;;;;;;;;;;;17.23;38.84;100217.34;4977458;28;1935;-55
2022/02/07 06:40:50;;;;;;;;;;;;;;;17.16;38.88;100209.44;4977769;28;1209;-56
2022/02/07 06:43:16;;;;;;;;;;;;;;;17.02;38.97;100214.78;4969912;28;1486;-61
2022/02/07 06:45:42;;;;;;;;;;;;;;;16.71;39.11;100208.75;4959851;28;1579;-65
2022/02/07 06:48:08;;;;;;;;;;;;;;;16.55;40.23;100210.78;4971255;28;1249;-57
2022/02/07 06:50:36;;;;;;;;;;;;;;;16.75;41.03;100196.09;4982976;28;1910;-59
2022/02/07 06:53:04;;;;;;;;;;;;;;;17.02;40.26;100219.47;4969033;28;1345;-59
2022/02/07 06:55:30;;;;;;;;;;;;;;;17.13;40.03;100196.28;4994944;28;1615;-60
2022/02/07 06:57:55;;;;;;;;;;;;;;;17.27;39.80;100201.91;4974009;28;1237;-58
2022/02/07 07:00:21;;;;;;;;;;;;;;;17.26;39.71;100211.25;4991031;28;1389;-59
2022/02/07 07:02:51;;;;;;;;;;;;;;;17.15;40.26;100195.97;4966420;28;1507;-61
2022/02/07 07:05:22;;;;;;;;;;;;;;;16.76;39.30;100197.72;4972066;28;1649;-63
2022/02/07 07:07:51;;;;;;;;;;;;;;;16.82;40.45;100193.81;4962525;28;1133;-61
2022/02/07 07:10:18;;;;;;;;;;;;;;;17.53;39.80;100194.19;4966334;28;1981;-62
2022/02/07 07:12:48;;;;;;;;;;;;;;;17.74;39.85;100191.97;4967007;28;1353;-63
2022/02/07 07:15:26;;;;;;;;;;;;;;;18.28;38.89;100189.03;4974158;28;1390;-58
2022/02/07 07:17:53;;;;;;;;;;;;;;;17.66;40.61;100189.06;4977470;28;1361;-59
2022/02/07 07:20:18;;;;;;;;;;;;;;;17.51;41.09;100187.31;4979833;28;1364;-63
2022/02/07 07:22:45;;;;;;;;;;;;;;;17.26;42.18;100189.25;4970065;28;1521;-63
2022/02/07 07:25:15;;;;;;;;;;;;;;;17.20;40.78;100180.25;4964879;28;1242;-65
2022/02/07 07:27:56;;;;;;;;;;;;;;;16.86;40.70;100186.63;4966996;28;1309;-65
2022/02/07 07:30:25;;;;;;;;;;;;;;;16.72;43.16;100186.50;4968184;28;1918;-61
2022/02/07 07:32:52;;;;;;;;;;;;;;;16.79;44.48;100180.69;4975260;28;1195;-65
2022/02/07 07:35:18;;;;;;;;;;;;;;;16.97;44.24;100187.41;4976432;28;1278;-62
2022/02/07 07:37:44;;;;;;;;;;;;;;;16.66;44.74;100175.84;4984370;28;1353;-64
2022/02/07 07:40:12;;;;;;;;;;;;;;;16.64;46.39;100191.81;4983910;28;1225;-61
2022/02/07 07:42:38;;;;;;;;;;;;;;;19.56;39.16;100174.03;4994993;28;1230;-61
2022/02/07 07:45:15;;;;;;;;;;;;;;;21.14;35.90;100174.09;4983453;28;1435;-67
2022/02/07 07:48:03;;;;;;;;;;;;;;;20.29;37.83;100171.31;4993190;28;1186;-66
2022/02/07 07:50:56;;;;;;;;;;;;;;;20.32;37.83;100173.44;4995287;28;1918;-62
2022/02/07 07:54:11;;;;;;;;;;;;;;;18.80;41.36;100170.53;4983920;28;1249;-62
2022/02/07 08:02:17;;;;;;;;;;;;;;;20.93;37.32;100164.72;4981898;28;1220;-62
2022/02/07 08:04:45;;;;;;;;;;;;;;;21.68;36.13;100151.00;4986877;28;1179;-62
2022/02/07 08:07:21;;;;;;;;;;;;;;;20.50;38.57;100152.28;4991931;28;1353;-62
2022/02/07 08:10:05;;;;;;;;;;;;;;;19.29;41.48;100148.13;4980986;28;1919;-60
2022/02/07 08:12:39;;;;;;;;;;;;;;;18.33;40.77;100146.81;4979546;28;1254;-60
2022/02/07 08:15:05;;;;;;;;;;;;;;;18.30;44.15;100146.31;4989533;28;1507;-61
2022/02/07 08:17:30;;;;;;;;;;;;;;;20.99;39.15;100136.63;4987197;28;1365;-62
2022/02/07 08:19:56;;;;;;;;;;;;;;;22.17;36.30;100140.59;4989996;28;1337;-64
2022/02/07 08:22:24;;;;;;;;;;;;;;;21.91;37.06;100134.25;4984168;28;1575;-60
2022/02/07 08:24:56;;;;;;;;;;;;;;;22.07;36.72;100135.38;4992538;28;1547;-61
2022/02/07 08:27:24;;;;;;;;;;;;;;;20.15;40.68;100124.44;4986793;28;1236;-63
2022/02/07 08:29:50;;;;;;;;;;;;;;;20.41;40.83;100132.91;4992030;28;1985;-60
2022/02/07 08:32:16;;;;;;;;;;;;;;;19.94;42.19;100132.41;4981692;28;1258;-61
2022/02/07 08:34:41;;;;;;;;;;;;;;;19.38;43.62;100134.47;4990498;28;1381;-60
2022/02/07 08:37:08;;;;;;;;;;;;;;;19.07;43.41;100138.66;4985016;28;1620;-62
2022/02/07 08:39:33;;;;;;;;;;;;;;;18.80;43.52;100129.22;4994952;28;1184;-61
2022/02/07 08:41:59;;;;;;;;;;;;;;;18.70;44.67;100125.81;4978839;28;1266;-68
2022/02/07 08:44:26;;;;;;;;;;;;;;;19.86;42.58;100119.34;4989611;28;1036;-66
2022/02/07 08:46:52;;;;;;;;;;;;;;;19.55;42.53;100122.78;4978043;28;921;-64
2022/02/07 08:49:18;;;;;;;;;;;;;;;19.05;43.68;100120.78;4981977;28;1910;-64
2022/02/07 08:51:44;;;;;;;;;;;;;;;18.81;43.90;100117.06;4990637;28;1569;-64
2022/02/07 08:54:10;;;;;;;;;;;;;;;19.05;43.48;100105.06;4991007;28;1047;-63
2022/02/07 08:56:48;;;;;;;;;;;;;;;19.99;40.86;100110.19;4983358;28;1067;-61
2022/02/07 08:59:14;;;;;;;;;;;;;;;20.71;39.38;100102.88;4988571;28;1369;-66
2022/02/07 09:01:50;;;;;;;;;;;;;;;21.00;38.69;100101.53;4986435;28;1294;-67
2022/02/07 09:07:05;;;;;;;;;;;;;;;20.13;40.89;100091.66;4990192;28;1289;-62
2022/02/07 09:09:31;;;;;;;;;;;;;;;21.47;38.05;100087.97;4987279;28;1903;-63
2022/02/07 09:11:57;;;;;;;;;;;;;;;21.91;37.36;100087.19;4995722;28;1210;-61
2022/02/07 09:14:24;;;;;;;;;;;;;;;22.10;37.36;100081.31;4982134;28;1009;-62
2022/02/07 09:16:51;;;;;;;;;;;;;;;22.37;36.96;100077.38;4980637;28;810;-62
2022/02/07 09:19:19;;;;;;;;;;;;;;;22.43;37.18;100070.53;4979025;28;1570;-62
2022/02/07 09:21:45;;;;;;;;;;;;;;;22.60;36.72;100071.63;4983544;28;863;-62
2022/02/07 09:24:11;;;;;;;;;;;;;;;22.62;36.85;100059.03;4983447;28;1566;-62
2022/02/07 09:26:36;;;;;;;;;;;;;;;22.70;36.99;100055.41;4985041;28;774;-62
2022/02/07 09:29:02;;;;;;;;;;;;;;;22.81;36.84;100058.63;4983439;28;1977;-61
2022/02/07 09:31:28;;;;;;;;;;;;;;;22.94;36.94;100051.22;5004103;28;1222;-67
2022/02/07 09:33:53;;;;;;;;;;;;;;;22.98;36.97;100054.97;4994599;28;1359;-65
2022/02/07 09:36:19;;;;;;;;;;;;;;;23.10;36.72;100048.72;4991177;28;1395;-65
2022/02/07 09:38:44;;;;;;;;;;;;;;;23.10;36.95;100043.16;5001369;28;1431;-66
2022/02/07 09:41:10;;;;;;;;;;;;;;;23.14;36.71;100032.22;5006336;28;1294;-63
2022/02/07 09:43:43;;;;;;;;;;;;;;;21.60;40.17;100021.78;5002393;28;1321;-64
2022/02/07 09:46:12;;;;;;;;;;;;;;;21.55;40.17;100014.47;4996586;28;1229;-61
2022/02/07 09:48:39;;;;;;;;;;;;;;;21.91;39.68;100012.47;5004224;28;1910;-63
2022/02/07 09:51:05;;;;;;;;;;;;;;;22.52;38.23;100004.00;5005146;28;1280;-63
2022/02/07 09:53:31;;;;;;;;;;;;;;;22.82;37.87;99996.53;4982609;28;1431;-66
2022/02/07 09:55:58;;;;;;;;;;;;;;;22.94;37.65;99994.97;4993172;28;1210;-66
2022/02/07 09:58:23;;;;;;;;;;;;;;;23.07;37.46;99982.84;4999369;28;1349;-69
2022/02/07 10:00:49;;;;;;;;;;;;;;;23.06;37.32;99975.66;4992660;28;1238;-67
2022/02/07 10:03:27;;;;;;;;;;;;;;;21.55;40.14;99964.69;4998799;28;1432;-66
2022/02/07 10:17:07;;;;;;;;;;;;;;;22.83;36.32;99945.50;4992273;28;1365;-68
2022/02/07 10:19:13;;;;;;;;;;;;;;;22.99;35.76;99951.25;4984996;28;1658;-67
2022/02/07 10:36:04;;;;;;;;;;;;;;;22.29;36.08;99904.53;4980196;28;1185;-66
2022/02/07 10:38:25;;;;;;;;;;;;;;;22.67;35.17;99900.91;4989127;28;1643;-68
2022/02/07 10:46:09;;;;;;;;;;;;;;;23.02;34.42;99899.84;4986873;28;1258;-68
2022/02/07 10:48:38;;;;;;;;;;;;;;;23.12;34.12;99896.69;4984814;28;1278;-66
2022/02/07 10:51:05;;;;;;;;;;;;;;;23.13;34.08;99884.44;4988291;28;1969;-63
2022/02/07 10:53:30;;;;;;;;;;;;;;;21.15;37.85;99879.94;4983479;28;1559;-65
2022/02/07 10:55:55;;;;;;;;;;;;;;;21.63;37.28;99877.25;4995232;28;1854;-65
2022/02/07 10:58:21;;;;;;;;;;;;;;;22.40;35.56;99877.31;4979476;28;1240;-66
2022/02/07 11:00:55;;;;;;;;;;;;;;;22.73;34.78;99857.19;4988454;28;1412;-65
2022/02/07 11:03:23;;;;;;;;;;;;;;;22.88;34.58;99853.78;4990463;28;1503;-66
2022/02/07 11:05:51;;;;;;;;;;;;;;;22.96;34.50;99842.97;4989260;28;1486;-69
2022/02/07 11:08:48;;;;;;;;;;;;;;;23.15;34.23;99850.81;4985936;28;1756;-64
2022/02/07 11:16:11;;;;;;;;;;;;;;;22.34;36.10;99839.84;4989593;28;1280;-63
2022/02/07 11:21:47;;;;;;;;;;;;;;;23.16;34.83;99839.38;4982830;28;1354;-63
2022/02/07 11:27:29;;;;;;;;;;;;;;;21.27;38.50;99835.03;4990681;28;1343;-64
2022/02/07 11:29:54;;;;;;;;;;;;;;;22.04;37.24;99837.06;4989003;28;1906;-64
2022/02/07 11:32:38;;;;;;;;;;;;;;;22.52;35.96;99835.00;4984937;28;1439;-64
2022/02/07 11:35:04;;;;;;;;;;;;;;;22.77;35.21;99824.06;4978736;28;819;-64
2022/02/07 11:37:29;;;;;;;;;;;;;;;22.90;35.12;99814.66;4985690;28;1452;-64
2022/02/07 11:39:55;;;;;;;;;;;;;;;22.90;34.74;99801.63;4979601;28;1367;-63
2022/02/07 11:42:20;;;;;;;;;;;;;;;23.02;34.46;99808.34;4985185;28;928;-64
2022/02/07 11:44:46;;;;;;;;;;;;;;;23.03;34.54;99794.16;4981981;28;1440;-64
2022/02/07 11:47:11;;;;;;;;;;;;;;;23.13;34.28;99789.38;4980782;28;1491;-64
2022/02/07 11:49:40;;;;;;;;;;;;;;;23.17;33.90;99788.34;4979715;28;1965;-64
2022/02/07 11:52:24;;;;;;;;;;;;;;;21.69;36.73;99781.88;4978957;28;846;-63
2022/02/07 11:54:54;;;;;;;;;;;;;;;21.17;37.95;99772.59;4985600;28;1390;-59
2022/02/07 11:57:21;;;;;;;;;;;;;;;22.08;35.96;99782.66;4989515;28;1649;-58
2022/02/07 11:59:56;;;;;;;;;;;;;;;22.53;34.99;99770.16;4994311;28;1246;-58
2022/02/07 12:02:21;;;;;;;;;;;;;;;22.74;34.58;99767.34;4982630;28;1439;-59
2022/02/07 12:04:48;;;;;;;;;;;;;;;22.88;34.03;99769.84;4996261;28;1205;-59
2022/02/07 12:07:14;;;;;;;;;;;;;;;22.93;33.95;99764.09;4989530;28;807;-58
2022/02/07 12:10:14;;;;;;;;;;;;;;;23.05;33.71;99757.75;4978503;28;1965;-59
2022/02/07 12:12:47;;;;;;;;;;;;;;;23.08;33.59;99748.75;4979483;28;1514;-59
2022/02/07 12:15:16;;;;;;;;;;;;;;;22.56;34.41;99739.78;4987751;28;1234;-58
2022/02/07 12:17:41;;;;;;;;;;;;;;;21.14;37.37;99740.09;4995947;28;1247;-58
2022/02/07 12:20:07;;;;;;;;;;;;;;;22.13;35.46;99740.13;4985116;28;818;-59
2022/02/07 12:22:48;;;;;;;;;;;;;;;22.62;34.30;99750.69;4985478;28;1452;-58
2022/02/07 12:25:33;;;;;;;;;;;;;;;22.80;33.83;99740.25;4988346;28;1562;-58
2022/02/07 12:27:59;;;;;;;;;;;;;;;22.91;33.56;99738.66;4978050;28;866;-58
2022/02/07 12:30:33;;;;;;;;;;;;;;;23.03;33.51;99746.22;4983492;28;1898;-59
2022/02/07 12:33:04;;;;;;;;;;;;;;;23.11;33.22;99750.03;4980421;28;1189;-59
2022/02/07 12:35:30;;;;;;;;;;;;;;;23.13;33.13;99748.56;4980882;28;1487;-59
2022/02/07 12:37:56;;;;;;;;;;;;;;;21.32;36.47;99740.00;4987795;28;1254;-63
2022/02/07 12:40:22;;;;;;;;;;;;;;;21.32;36.71;99746.38;4996938;28;817;-64
2022/02/07 12:42:49;;;;;;;;;;;;;;;22.29;34.59;99738.38;4996849;28;896;-64
2022/02/07 12:45:14;;;;;;;;;;;;;;;22.71;33.74;99748.66;4986692;28;1273;-64
2022/02/07 12:47:40;;;;;;;;;;;;;;;22.85;33.39;99742.81;4980353;28;1594;-64
2022/02/07 12:50:09;;;;;;;;;;;;;;;22.95;33.21;99747.91;4979808;28;1898;-64
2022/02/07 12:52:35;;;;;;;;;;;;;;;22.99;33.04;99742.50;4996848;28;881;-64
2022/02/07 12:55:01;;;;;;;;;;;;;;;23.05;32.89;99747.47;4996387;28;925;-64
2022/02/07 12:57:27;;;;;;;;;;;;;;;23.17;32.97;99745.94;4989047;28;1415;-64
2022/02/07 12:59:53;;;;;;;;;;;;;;;21.17;36.51;99750.47;4986456;28;1340;-67
2022/02/07 13:02:28;;;;;;;;;;;;;;;21.64;35.33;99738.63;4991652;28;1312;-66
2022/02/07 13:04:53;;;;;;;;;;;;;;;22.46;33.90;99737.44;4987670;28;1153;-68
2022/02/07 13:07:21;;;;;;;;;;;;;;;22.70;33.32;99739.50;4977635;28;902;-66
2022/02/07 13:09:56;;;;;;;;;;;;;;;22.85;32.89;99737.25;4978691;28;1899;-64
2022/02/07 13:15:01;;;;;;;;;;;;;;;23.07;32.43;99716.66;4992538;28;1226;-69
2022/02/07 13:17:27;;;;;;;;;;;;;;;23.10;32.39;99727.06;4993919;28;1336;-69
2022/02/07 13:19:53;;;;;;;;;;;;;;;22.70;33.13;99719.31;4988160;28;1249;-68
2022/02/07 13:22:21;;;;;;;;;;;;;;;21.46;35.55;99724.03;4988184;28;1197;-69
2022/02/07 13:24:47;;;;;;;;;;;;;;;21.02;36.54;99726.13;4987188;28;1296;-70
2022/02/07 13:27:14;;;;;;;;;;;;;;;21.86;35.19;99720.09;4993069;28;1325;-68
2022/02/07 13:29:45;;;;;;;;;;;;;;;22.70;33.49;99709.03;4990428;28;1981;-68
2022/02/07 13:32:11;;;;;;;;;;;;;;;23.06;32.75;99723.34;4983152;28;1460;-68
2022/02/07 13:34:37;;;;;;;;;;;;;;;23.12;32.83;99721.19;4994085;28;1396;-70
2022/02/07 13:37:07;;;;;;;;;;;;;;;22.78;33.41;99710.09;4986596;28;1340;-67
2022/02/07 13:39:48;;;;;;;;;;;;;;;21.31;36.62;99706.03;4992203;28;1261;-71
2022/02/07 13:42:15;;;;;;;;;;;;;;;20.65;37.95;99701.66;4983739;28;1098;-71
2022/02/07 13:44:41;;;;;;;;;;;;;;;21.24;37.30;99704.91;4985274;28;1138;-70
2022/02/07 13:47:06;;;;;;;;;;;;;;;22.30;35.37;99712.31;4994062;28;1288;-70
2022/02/07 13:49:32;;;;;;;;;;;;;;;22.69;34.74;99707.44;4985743;28;1898;-69
2022/02/07 13:51:57;;;;;;;;;;;;;;;22.87;34.50;99705.28;4991273;28;1321;-70
2022/02/07 13:54:29;;;;;;;;;;;;;;;23.04;34.50;99704.28;4988451;28;1205;-70
2022/02/07 13:57:01;;;;;;;;;;;;;;;22.37;35.42;99703.47;4984166;28;1086;-71
2022/02/07 13:59:34;;;;;;;;;;;;;;;21.39;37.92;99700.78;4985635;28;1304;-69
2022/02/07 14:02:00;;;;;;;;;;;;;;;20.60;39.82;99701.00;4990393;28;1303;-71
2022/02/07 14:04:26;;;;;;;;;;;;;;;20.64;40.08;99688.16;4983558;28;1233;-70
2022/02/07 14:07:04;;;;;;;;;;;;;;;22.02;36.93;99678.78;4977615;28;790;-71
2022/02/07 14:09:30;;;;;;;;;;;;;;;22.54;36.04;99669.28;4991475;28;1911;-70
2022/02/07 14:11:58;;;;;;;;;;;;;;;22.80;35.70;99668.97;4981361;28;1353;-70
2022/02/07 14:14:26;;;;;;;;;;;;;;;22.89;35.46;99666.94;4999905;28;1420;-71
2022/02/07 14:16:51;;;;;;;;;;;;;;;21.51;38.14;99654.69;4980401;28;831;-71
2022/02/07 14:19:17;;;;;;;;;;;;;;;21.30;38.87;99657.41;4991932;28;1551;-70
2022/02/07 14:21:43;;;;;;;;;;;;;;;20.30;41.07;99651.16;4995832;28;1438;-70
2022/02/07 14:24:08;;;;;;;;;;;;;;;21.78;38.05;99644.28;4996662;28;1344;-70
2022/02/07 14:26:37;;;;;;;;;;;;;;;22.54;36.64;99647.91;4991782;28;1268;-65
2022/02/07 14:29:04;;;;;;;;;;;;;;;22.94;35.83;99640.16;4996823;28;1971;-67
2022/02/07 14:31:30;;;;;;;;;;;;;;;22.72;36.05;99639.41;5002499;28;1277;-66
2022/02/07 14:33:56;;;;;;;;;;;;;;;20.61;40.09;99630.81;5001290;28;1491;-63
2022/02/07 14:36:23;;;;;;;;;;;;;;;20.27;40.75;99627.78;4987248;28;1218;-65
2022/02/07 14:38:48;;;;;;;;;;;;;;;18.65;44.28;99622.84;4987457;28;1170;-65
2022/02/07 14:41:18;;;;;;;;;;;;;;;18.80;44.19;99629.88;4981167;28;1420;-62
2022/02/07 14:43:48;;;;;;;;;;;;;;;20.43;39.89;99628.09;4985628;28;1178;-65
2022/02/07 14:46:21;;;;;;;;;;;;;;;21.00;38.64;99628.94;4985464;28;1202;-66
2022/02/07 14:48:47;;;;;;;;;;;;;;;21.38;37.89;99630.88;4996213;28;1543;-68
2022/02/07 14:51:13;;;;;;;;;;;;;;;21.34;37.80;99630.72;4983802;28;1918;-63
2022/02/07 14:53:38;;;;;;;;;;;;;;;20.38;39.54;99611.69;4984560;28;1192;-64
2022/02/07 14:56:04;;;;;;;;;;;;;;;20.46;39.29;99619.13;4979114;28;866;-63
2022/02/07 14:58:30;;;;;;;;;;;;;;;19.08;42.36;99607.66;4978935;28;799;-62
2022/02/07 15:00:55;;;;;;;;;;;;;;;18.43;43.72;99610.72;4983926;28;943;-62
2022/02/07 15:03:21;;;;;;;;;;;;;;;19.98;40.35;99614.66;4990241;28;1059;-62
2022/02/07 15:05:47;;;;;;;;;;;;;;;20.65;38.50;99617.94;4985716;28;1408;-62
2022/02/07 15:08:13;;;;;;;;;;;;;;;20.99;37.94;99611.53;4980958;28;1073;-62
2022/02/07 15:10:38;;;;;;;;;;;;;;;20.29;38.98;99611.69;4985795;28;1975;-63
2022/02/07 15:13:04;;;;;;;;;;;;;;;20.15;39.57;99609.13;4998108;28;834;-62
2022/02/07 15:15:29;;;;;;;;;;;;;;;19.70;40.11;99600.31;4988901;28;971;-62
2022/02/07 15:17:57;;;;;;;;;;;;;;;18.44;43.11;99606.84;4985144;28;1244;-59
2022/02/07 15:20:23;;;;;;;;;;;;;;;19.07;41.85;99609.63;4978235;28;862;-59
2022/02/07 15:22:49;;;;;;;;;;;;;;;20.17;38.98;99608.78;4987076;28;1225;-59
2022/02/07 15:25:18;;;;;;;;;;;;;;;20.59;38.04;99594.44;4994598;28;1240;-59